logo
Search for airport 
image banner adimage banner adimage banner ad
image banner ad

FARI - Reivilo

Located in Reivilo, South Africa

ICAO - FARI, IATA - RVO

Data provided by Airmate  

General information

Coordinates: S27°33'15" E24°10'0"
Elevation is 4715 feet MSL.
 
View others Airports in North-West

Operational data

Special qualification required
Current time UTC:
Current local time:
Weather at : - ( 0 km )
METAR: PAKP 150913Z AUTO 20015KT 9SM -SN SCT025 OVC032 M11/M14 A3005 RMK AO2 P0000 FZRANO
View NOTAMs / SUP AIP / TFR affecting this airport [VIEW]
Communications frequencies: [VIEW]

Runways:

RWY identifierQFULength (ft)Width (ft)SurfaceLDA (ft)
1600UNK
3400UNK

Airport contact information

Address: Reivilo South Africa

Satellite view of FARI